Airfield :
LOGIN :

Register | Disclaimer

   EN    FR    IT 

 










Legend :    VFR   Marginal VFR   IFR   Intensive IFR   Very Intensive IFR
Visi :
Ceiling :
>= 8 km
>= 3000ft
5 to 8 km
1000 to 3000 ft
1500m to 5 km
500 to 1000 ft
800 to 1500m
200 to 500 ft
< 800m
< 200 ft
Symbols :   Thunderstorms  Fog  Heavy snow  Heavy precipitations  Wind > 20 kt
SIGMETs :     Misc.  Thunderstorms  Icing  Turbulence  Mountain Waves  Volcanic Ashes







- Airport Elevation : 12 ft
- IATA code : NCE
- Download approach charts


LFMN - Nice

CURRENT METAR :
  • 211700Z 09008KT 9999 FEW030 FEW040TCU 27/21 Q1009 NOSIG

EXPIRED METARs :
  • 211630Z 09006KT 9999 FEW030 FEW040TCU 27/21 Q1009 NOSIG
  • 211600Z 10007KT 9999 FEW030 FEW040CB 27/22 Q1009 NOSIG
  • 211530Z 08010KT 9999 FEW030 FEW040CB 27/22 Q1009 NOSIG
  • 211500Z 10010KT 9999 FEW030 FEW040CB 27/22 Q1009 NOSIG
  • 211430Z 10012KT 9999 FEW030 FEW040CB 27/22 Q1010 NOSIG

TAF TAF LFMN
Valid from the 21 at 15:00 until the 22 at 21:00 UTC


211400Z 2115/2221 09012KT 9999 FEW026 FEW036CB
BECMG 2119/2123 VRB05KT BKN014
BECMG 2206/2209 18008KT CAVOK
BECMG 2211/2213 12010KT FEW040TCU
PROB30
TEMPO 2217/2220 SHRA FEW036CB
TEMPO 2220/2221 20015KT
ATIS : +33 4 93 17 21 16
No reported NOTAMs for that airfield.



MET'MAP, your aeronautical weather chart ! - Copyright ORBIFLY December 2007 - Disclaimer

ORBIFLY MET'MAP TEAM :

Programming & Development : Alexandra Zaïnal
Concept & Development : Baudouin d'Aumeries
Co-Development & Prog : Marc-Olivier Méhu
Technical & hardware support : Manuel Goepfert

Contact : metmap@orbifly.com




SOURCES & CREDITS :

   NOAA